Time;durP1;ratioP1;P1;durP2;ratioP2;P2;SDS_P1;SDS_P2;PMS_P1;PMS_P2;Temp;Humidity;BMP_temperature;BMP_pressure;BME280_temperature;BME280_humidity;BME280_pressure;Samples;Min_cycle;Max_cycle;Signal;HPM_P1;HPM_P2
2022/10/19 00:00:19;;;;;;;5.10;3.60;;;;;;;7.01;100.00;100668.38;4944134;29;20476;-70
2022/10/19 00:02:45;;;;;;;4.57;3.50;;;;;;;6.94;100.00;100668.09;4944001;29;20023;-70
2022/10/19 00:05:11;;;;;;;4.13;3.67;;;;;;;6.98;100.00;100664.19;4925866;29;20031;-71
2022/10/19 00:07:37;;;;;;;6.23;2.80;;;;;;;6.93;100.00;100665.56;4942535;29;20051;-72
2022/10/19 00:10:03;;;;;;;4.17;3.20;;;;;;;6.96;100.00;100670.59;4947109;29;20042;-72
2022/10/19 00:12:29;;;;;;;4.83;3.27;;;;;;;6.97;100.00;100673.13;4938483;29;20062;-71
2022/10/19 00:14:55;;;;;;;2.83;2.50;;;;;;;6.96;100.00;100675.91;4936369;29;20055;-71
2022/10/19 00:17:20;;;;;;;4.80;2.90;;;;;;;6.91;100.00;100672.81;4936402;29;20070;-69
2022/10/19 00:19:46;;;;;;;3.80;2.43;;;;;;;6.83;100.00;100669.06;4936107;29;20038;-69
2022/10/19 00:22:11;;;;;;;4.37;2.93;;;;;;;6.82;100.00;100661.28;4936581;29;20036;-69
2022/10/19 00:24:37;;;;;;;3.30;2.83;;;;;;;6.81;100.00;100667.53;4936172;29;20035;-71
2022/10/19 00:27:02;;;;;;;3.00;2.70;;;;;;;6.82;100.00;100667.41;4936370;29;20467;-70
2022/10/19 00:29:28;;;;;;;4.30;2.80;;;;;;;6.85;100.00;100668.94;4936511;29;20031;-68
2022/10/19 00:31:53;;;;;;;4.27;2.80;;;;;;;6.81;100.00;100664.91;4937784;29;20028;-69
2022/10/19 00:34:19;;;;;;;3.33;3.03;;;;;;;6.82;100.00;100671.84;4936126;29;20107;-69
2022/10/19 00:36:50;;;;;;;3.83;2.77;;;;;;;6.75;100.00;100663.66;4936469;29;20126;-70
2022/10/19 00:39:17;;;;;;;4.00;3.13;;;;;;;6.78;100.00;100663.38;4936134;29;20067;-69
2022/10/19 00:41:44;;;;;;;3.83;3.23;;;;;;;6.77;100.00;100671.44;4936078;29;20047;-70
2022/10/19 00:44:14;;;;;;;6.47;3.37;;;;;;;6.75;100.00;100682.19;4936006;29;20159;-70
2022/10/19 00:46:47;;;;;;;3.87;3.40;;;;;;;6.72;100.00;100678.97;4935922;29;20376;-70
2022/10/19 00:49:18;;;;;;;5.73;3.20;;;;;;;6.68;100.00;100667.00;4935884;29;20035;-70
2022/10/19 00:51:47;;;;;;;4.57;3.97;;;;;;;6.70;100.00;100675.63;4935877;29;20060;-70
2022/10/19 00:54:12;;;;;;;;;;;;;;;6.75;100.00;100681.34;4936689;29;20039;-70
2022/10/19 00:56:41;;;;;;;3.63;3.33;;;;;;;6.70;100.00;100681.75;4935711;29;19911;-70
2022/10/19 00:59:08;;;;;;;3.97;3.67;;;;;;;6.69;100.00;100679.25;4935646;29;20027;-69
2022/10/19 01:01:34;;;;;;;4.77;3.17;;;;;;;6.66;100.00;100674.25;4935814;29;20047;-69
2022/10/19 01:04:01;;;;;;;4.00;3.07;;;;;;;6.63;100.00;100677.16;4936150;29;20024;-70
2022/10/19 01:06:27;;;;;;;3.83;3.43;;;;;;;6.63;100.00;100675.34;4918175;29;20396;-69
2022/10/19 01:08:54;;;;;;;3.47;3.17;;;;;;;6.58;100.00;100672.28;4935597;29;20075;-70
2022/10/19 01:11:50;;;;;;;4.00;3.37;;;;;;;6.66;100.00;100685.66;4935427;29;20059;-69
2022/10/19 01:14:37;;;;;;;3.40;2.73;;;;;;;6.62;100.00;100688.72;4932146;29;20099;-69
2022/10/19 01:17:48;;;;;;;3.67;3.03;;;;;;;6.62;100.00;100686.06;4937518;29;20034;-69
2022/10/19 01:20:26;;;;;;;3.47;3.17;;;;;;;6.65;100.00;100688.44;4941092;29;20464;-70
2022/10/19 01:23:22;;;;;;;7.97;2.90;;;;;;;6.58;100.00;100687.31;4941048;29;20089;-69
2022/10/19 01:26:12;;;;;;;3.00;2.70;;;;;;;6.49;100.00;100681.88;4939907;29;20035;-70
2022/10/19 01:29:08;;;;;;;5.10;3.53;;;;;;;6.46;100.00;100684.81;4935217;29;20046;-69
2022/10/19 01:31:48;;;;;;;3.80;2.47;;;;;;;6.44;100.00;100681.47;4935346;29;20476;-69
2022/10/19 01:34:16;;;;;;;3.67;2.80;;;;;;;6.46;100.00;100687.47;4935426;29;20376;-69
2022/10/19 01:37:05;;;;;;;3.90;2.53;;;;;;;6.52;100.00;100686.91;4934674;29;20027;-69
2022/10/19 01:39:41;;;;;;;2.90;2.60;;;;;;;6.48;100.00;100680.22;4935578;29;20031;-69
2022/10/19 01:42:24;;;;;;;3.13;2.80;;;;;;;6.51;100.00;100682.59;4935937;29;20490;-69
2022/10/19 01:44:54;;;;;;;4.03;2.40;;;;;;;6.48;100.00;100688.16;4938809;29;20452;-71
2022/10/19 01:47:29;;;;;;;3.13;2.60;;;;;;;6.42;100.00;100686.06;4938754;29;20055;-70
2022/10/19 01:50:04;;;;;;;5.40;2.80;;;;;;;6.42;100.00;100691.34;4938982;29;20087;-70
2022/10/19 01:52:32;;;;;;;3.23;2.50;;;;;;;6.37;100.00;100690.94;4935679;29;20038;-69
2022/10/19 01:54:59;;;;;;;2.60;2.40;;;;;;;6.36;100.00;100683.13;4934872;29;20035;-70
2022/10/19 01:57:33;;;;;;;2.73;2.53;;;;;;;6.25;100.00;100670.84;4934811;29;20032;-69
2022/10/19 02:00:06;;;;;;;4.83;3.20;;;;;;;6.32;100.00;100671.97;4934952;29;20059;-70
2022/10/19 02:02:35;;;;;;;3.50;2.60;;;;;;;6.36;100.00;100686.63;4934966;29;20032;-69
2022/10/19 02:05:02;;;;;;;2.87;2.53;;;;;;;6.34;100.00;100693.00;4934919;29;20027;-70
2022/10/19 02:07:29;;;;;;;3.53;2.50;;;;;;;6.35;100.00;100689.38;4917847;29;20138;-70
2022/10/19 02:09:55;;;;;;;2.43;2.23;;;;;;;6.31;100.00;100683.53;4935652;29;20048;-70
2022/10/19 02:12:22;;;;;;;4.03;2.23;;;;;;;6.36;100.00;100683.13;4939564;29;20095;-69
2022/10/19 02:14:53;;;;;;;3.03;2.73;;;;;;;6.40;100.00;100690.66;4941812;29;20035;-70
2022/10/19 02:17:25;;;;;;;3.17;2.27;;;;;;;6.44;100.00;100694.69;4942656;29;20115;-69
2022/10/19 02:19:52;;;;;;;2.60;2.40;;;;;;;6.45;100.00;100693.72;4922378;29;20376;-70
2022/10/19 02:22:18;;;;;;;4.37;2.43;;;;;;;6.44;100.00;100689.41;4959008;29;20038;-69
2022/10/19 02:24:44;;;;;;;2.77;2.30;;;;;;;6.43;100.00;100687.75;4959055;28;20036;-70
2022/10/19 02:27:10;;;;;;;3.73;3.17;;;;;;;6.42;100.00;100693.16;4958543;28;20028;-71
2022/10/19 02:29:36;;;;;;;4.17;2.03;;;;;;;6.24;100.00;100671.84;4945517;29;20047;-70
2022/10/19 02:32:03;;;;;;;3.20;2.40;;;;;;;6.34;100.00;100687.69;4934605;29;20114;-70
2022/10/19 02:34:29;;;;;;;1.90;1.70;;;;;;;6.25;100.00;100680.59;4917732;29;20055;-70
2022/10/19 02:36:55;;;;;;;2.70;2.07;;;;;;;6.29;100.00;100682.00;4934598;29;20080;-70
2022/10/19 02:39:21;;;;;;;2.43;1.80;;;;;;;6.32;100.00;100687.84;4934377;29;20051;-69
2022/10/19 02:42:17;;;;;;;2.67;1.50;;;;;;;6.37;100.00;100688.28;4934798;29;20027;-69
2022/10/19 02:45:06;;;;;;;1.70;1.37;;;;;;;6.39;100.00;100685.50;4933408;29;20028;-70
2022/10/19 02:47:43;;;;;;;2.40;1.90;;;;;;;6.22;100.00;100671.13;4927274;29;20464;-69
2022/10/19 02:50:10;;;;;;;1.93;1.50;;;;;;;6.22;100.00;100685.19;4938842;29;20036;-70
2022/10/19 02:52:37;;;;;;;2.10;1.83;;;;;;;6.02;100.00;100653.56;4938066;29;20032;-69
2022/10/19 02:55:04;;;;;;;2.83;1.50;;;;;;;6.25;100.00;100686.72;4938065;29;20023;-70
2022/10/19 02:57:31;;;;;;;2.57;2.17;;;;;;;6.25;100.00;100693.81;4937782;29;20027;-70
2022/10/19 02:59:57;;;;;;;4.07;1.90;;;;;;;6.21;100.00;100685.31;4937892;29;20431;-70
2022/10/19 03:02:22;;;;;;;2.87;2.10;;;;;;;6.22;100.00;100682.53;4937983;29;20131;-69
2022/10/19 03:04:48;;;;;;;3.53;2.40;;;;;;;6.24;100.00;100686.88;4937957;29;20034;-69
2022/10/19 03:07:19;;;;;;;1.73;1.37;;;;;;;6.30;100.00;100694.25;4937914;29;20444;-69
2022/10/19 03:09:46;;;;;;;1.90;1.50;;;;;;;6.23;100.00;100691.31;4937608;29;20040;-70
2022/10/19 03:12:12;;;;;;;2.33;2.13;;;;;;;6.15;100.00;100692.00;4937571;29;20027;-69
2022/10/19 03:14:37;;;;;;;2.03;1.83;;;;;;;6.13;100.00;100693.94;4937322;29;20028;-71
2022/10/19 03:17:04;;;;;;;4.60;1.97;;;;;;;6.07;100.00;100689.22;4937533;29;20038;-70
2022/10/19 03:19:30;;;;;;;1.93;1.80;;;;;;;6.04;100.00;100678.03;4937606;29;20066;-70
2022/10/19 03:21:55;;;;;;;3.13;1.60;;;;;;;5.98;100.00;100683.88;4920607;29;20067;-69
2022/10/19 03:24:21;;;;;;;2.40;2.20;;;;;;;5.97;100.00;100695.41;4937426;29;20031;-70
2022/10/19 03:26:47;;;;;;;2.23;1.67;;;;;;;5.97;100.00;100701.53;4937458;29;20352;-69
2022/10/19 03:29:12;;;;;;;3.47;1.57;;;;;;;5.92;100.00;100697.63;4937266;29;20035;-70
2022/10/19 03:31:38;;;;;;;1.57;1.27;;;;;;;5.92;100.00;100702.91;4937142;29;20421;-70
2022/10/19 03:34:03;;;;;;;1.73;1.50;;;;;;;5.92;100.00;100705.56;4937513;29;20429;-70
2022/10/19 03:36:35;;;;;;;1.60;1.50;;;;;;;5.78;100.00;100681.16;4937503;29;20392;-70
2022/10/19 03:39:04;;;;;;;1.63;1.40;;;;;;;5.97;100.00;100719.22;4937363;29;20036;-70
2022/10/19 03:41:33;;;;;;;4.17;1.80;;;;;;;5.99;100.00;100696.13;4937095;29;20047;-70
2022/10/19 03:43:58;;;;;;;;;;;;;;;6.08;100.00;100711.19;4937605;29;20027;-69
2022/10/19 03:46:25;;;;;;;3.23;1.80;;;;;;;6.04;100.00;100707.13;4937496;29;19918;-69
2022/10/19 03:48:51;;;;;;;1.80;1.60;;;;;;;6.03;100.00;100708.94;4920128;29;20504;-70
2022/10/19 03:51:25;;;;;;;3.53;1.60;;;;;;;6.00;100.00;100703.09;4937040;29;20119;-70
2022/10/19 03:53:53;;;;;;;5.20;1.73;;;;;;;6.04;100.00;100707.13;4937075;29;20038;-69
2022/10/19 03:56:21;;;;;;;1.93;1.63;;;;;;;6.00;100.00;100703.09;4936867;29;20114;-69
2022/10/19 03:58:48;;;;;;;2.22;1.40;;;;;;;5.98;100.00;100705.03;4936940;29;20038;-68
2022/10/19 04:01:17;;;;;;;3.17;2.00;;;;;;;5.96;100.00;100709.59;4919029;29;20035;-69
2022/10/19 04:03:43;;;;;;;;;;;;;;;6.03;100.00;100718.66;4937168;29;20530;-70
2022/10/19 04:06:16;;;;;;;2.63;1.40;;;;;;;5.94;99.88;100703.63;4922388;29;19919;-71
2022/10/19 04:08:42;;;;;;;1.90;1.50;;;;;;;5.93;99.72;100713.34;4917776;29;20044;-69
2022/10/19 04:11:11;;;;;;;3.23;1.70;;;;;;;5.85;99.42;100711.34;4917645;29;20491;-69
2022/10/19 04:13:37;;;;;;;1.90;1.67;;;;;;;5.75;99.07;100721.03;4917527;29;20126;-69
2022/10/19 04:16:02;;;;;;;1.97;1.80;;;;;;;5.73;100.00;100717.69;4917535;29;20127;-70
2022/10/19 04:18:28;;;;;;;3.17;1.50;;;;;;;5.75;100.00;100728.97;4917971;29;20036;-70
2022/10/19 04:21:01;;;;;;;2.07;1.80;;;;;;;5.71;100.00;100724.91;4917148;29;20096;-70
2022/10/19 04:23:31;;;;;;;2.27;1.50;;;;;;;5.75;100.00;100723.69;4916979;29;20081;-76
2022/10/19 04:26:06;;;;;;;1.87;1.67;;;;;;;5.84;100.00;100732.63;4917529;29;20069;-72
2022/10/19 04:28:32;;;;;;;2.70;1.80;;;;;;;5.73;99.15;100715.06;4917214;29;20038;-71
2022/10/19 04:31:01;;;;;;;2.23;1.67;;;;;;;5.82;100.00;100731.94;4917340;29;20372;-70
2022/10/19 04:33:26;;;;;;;1.50;1.40;;;;;;;5.81;100.00;100736.38;4917330;29;20058;-71
2022/10/19 04:36:04;;;;;;;2.20;1.97;;;;;;;5.77;100.00;100724.38;4917004;29;20115;-69
2022/10/19 04:38:29;;;;;;;2.07;1.87;;;;;;;5.88;100.00;100739.34;4917211;29;20028;-70
2022/10/19 04:40:59;;;;;;;2.33;1.90;;;;;;;5.89;100.00;100733.94;4917005;29;20028;-69
2022/10/19 04:43:25;;;;;;;1.80;1.70;;;;;;;5.85;100.00;100739.59;4916878;29;20063;-69
2022/10/19 04:45:50;;;;;;;2.47;1.83;;;;;;;5.85;100.00;100739.59;4916935;29;20440;-68
2022/10/19 04:48:16;;;;;;;2.07;1.40;;;;;;;5.81;100.00;100741.69;4916706;29;20043;-72
2022/10/19 04:50:41;;;;;;;3.13;1.87;;;;;;;5.80;100.00;100745.28;4917078;29;20372;-70
2022/10/19 04:53:07;;;;;;;2.17;1.60;;;;;;;5.76;100.00;100758.88;4917048;29;20032;-70
2022/10/19 04:55:32;;;;;;;1.50;1.40;;;;;;;5.71;100.00;100751.34;4899873;29;20115;-70
2022/10/19 04:57:58;;;;;;;2.30;1.47;;;;;;;5.70;100.00;100754.94;4916899;29;20637;-70
2022/10/19 05:00:23;;;;;;;2.10;1.87;;;;;;;5.69;100.00;100755.91;4916638;29;20123;-70
2022/10/19 05:02:49;;;;;;;4.43;1.70;;;;;;;5.74;100.00;100763.44;4916561;29;20437;-69
2022/10/19 05:05:14;;;;;;;1.90;1.30;;;;;;;5.71;100.00;100756.63;4916678;29;20491;-69
2022/10/19 05:07:40;;;;;;;3.20;1.40;;;;;;;5.68;100.00;100766.63;4916159;29;20048;-69
2022/10/19 05:10:11;;;;;;;1.87;1.33;;;;;;;5.67;100.00;100768.44;4916459;29;20044;-69
2022/10/19 05:12:38;;;;;;;1.40;1.30;;;;;;;5.65;100.00;100773.00;4915219;29;20043;-70
2022/10/19 05:15:03;;;;;;;1.90;1.40;;;;;;;5.67;100.00;100763.16;4916951;29;20028;-72
2022/10/19 05:17:31;;;;;;;1.90;1.60;;;;;;;5.67;100.00;100765.78;4916391;29;20055;-71
2022/10/19 05:19:56;;;;;;;1.70;1.60;;;;;;;5.41;100.00;100744.22;4916438;29;20036;-71
2022/10/19 05:22:22;;;;;;;2.43;1.80;;;;;;;5.50;100.00;100766.41;4916377;29;20024;-70
2022/10/19 05:24:48;;;;;;;1.80;1.70;;;;;;;5.39;100.00;100747.97;4916424;29;20043;-69
2022/10/19 05:27:13;;;;;;;1.80;1.70;;;;;;;5.32;100.00;100738.88;4916046;29;20079;-69
2022/10/19 05:29:41;;;;;;;1.57;1.47;;;;;;;5.45;100.00;100758.84;4916036;29;20043;-74
2022/10/19 05:32:06;;;;;;;2.23;2.00;;;;;;;5.52;100.00;100769.75;4916009;29;20032;-72
2022/10/19 05:34:32;;;;;;;2.07;1.40;;;;;;;5.50;100.00;100758.47;4899313;29;20053;-72
2022/10/19 05:36:58;;;;;;;4.40;2.17;;;;;;;5.54;100.00;100770.44;4916152;29;20036;-70
2022/10/19 05:39:23;;;;;;;2.63;2.10;;;;;;;5.52;100.00;100761.81;4916486;29;20057;-69
2022/10/19 05:41:49;;;;;;;2.87;2.13;;;;;;;5.58;100.00;100777.97;4919992;29;20024;-70
2022/10/19 05:44:22;;;;;;;2.30;2.10;;;;;;;5.49;100.00;100773.50;4921167;29;20036;-70
2022/10/19 05:46:48;;;;;;;3.57;1.93;;;;;;;5.50;99.72;100787.53;4917905;29;20476;-70
2022/10/19 05:49:15;;;;;;;4.00;2.50;;;;;;;5.34;100.00;100760.72;4916287;29;20484;-69
2022/10/19 05:51:41;;;;;;;5.67;2.83;;;;;;;5.45;99.63;100794.97;4915827;29;20070;-70
2022/10/19 05:54:12;;;;;;;2.37;1.70;;;;;;;5.47;99.13;100795.69;4915779;29;20120;-70
2022/10/19 05:56:39;;;;;;;2.20;1.67;;;;;;;5.44;99.56;100798.59;4898720;29;20032;-69
2022/10/19 05:59:06;;;;;;;2.47;1.80;;;;;;;5.44;98.90;100785.38;4915410;29;20469;-70
2022/10/19 06:01:32;;;;;;;2.03;1.63;;;;;;;5.44;98.63;100788.03;4915803;29;20028;-69
2022/10/19 06:03:59;;;;;;;2.37;1.60;;;;;;;5.42;98.74;100792.59;4916203;29;20028;-68
2022/10/19 06:06:29;;;;;;;2.33;1.73;;;;;;;5.49;98.70;100799.03;4915642;29;20372;-72
2022/10/19 06:08:57;;;;;;;1.70;1.60;;;;;;;5.48;97.99;100792.91;4915483;29;20040;-70
2022/10/19 06:11:29;;;;;;;1.90;1.33;;;;;;;5.48;97.53;100806.13;4898910;29;20036;-70
2022/10/19 06:13:58;;;;;;;2.10;1.90;;;;;;;5.43;97.34;100804.84;4915698;29;20491;-70
2022/10/19 06:16:25;;;;;;;;;;;;;;;5.48;97.50;100808.75;4916140;29;20380;-70
2022/10/19 06:18:53;;;;;;;4.93;1.60;;;;;;;5.46;96.75;100817.78;4915805;29;19918;-70
2022/10/19 06:21:23;;;;;;;4.23;2.20;;;;;;;5.25;98.05;100778.19;4915635;29;20272;-69
2022/10/19 06:23:53;;;;;;;2.77;2.00;;;;;;;5.47;97.22;100812.38;4918224;29;20456;-69
2022/10/19 06:26:20;;;;;;;2.80;1.60;;;;;;;5.49;96.86;100815.75;4919733;29;20104;-69
2022/10/19 06:28:46;;;;;;;2.40;1.70;;;;;;;5.52;97.74;100826.06;4904584;29;20039;-68
2022/10/19 06:31:15;;;;;;;11.30;2.73;;;;;;;5.55;96.86;100820.50;4922235;29;20413;-68
2022/10/19 06:33:43;;;;;;;3.17;1.77;;;;;;;5.59;96.78;100831.66;4921349;29;20064;-69
2022/10/19 06:36:23;;;;;;;2.87;2.03;;;;;;;5.60;96.47;100822.75;4919617;29;20438;-70
2022/10/19 06:38:49;;;;;;;2.27;1.90;;;;;;;5.61;96.03;100837.66;4919089;29;20186;-70
2022/10/19 06:41:15;;;;;;;5.17;2.00;;;;;;;5.57;96.24;100826.50;4902368;29;20131;-70
2022/10/19 06:43:48;;;;;;;4.10;1.80;;;;;;;5.73;95.38;100846.34;4919324;29;20118;-70
2022/10/19 06:46:19;;;;;;;2.37;1.90;;;;;;;5.74;94.98;100835.63;4918908;29;20532;-70
2022/10/19 06:48:55;;;;;;;3.70;2.77;;;;;;;5.80;95.02;100851.00;4919091;29;20064;-70
2022/10/19 06:51:21;;;;;;;3.77;1.83;;;;;;;5.77;94.46;100856.50;4905412;29;20031;-68
2022/10/19 06:53:48;;;;;;;2.00;1.80;;;;;;;5.67;94.57;100855.63;4921998;29;20032;-70
2022/10/19 06:56:14;;;;;;;2.20;2.00;;;;;;;5.67;94.95;100860.91;4921290;29;20061;-70
2022/10/19 06:58:40;;;;;;;3.23;2.20;;;;;;;5.73;94.51;100860.38;4919780;29;20063;-71
2022/10/19 07:01:07;;;;;;;3.33;2.20;;;;;;;5.77;94.71;100864.44;4901855;29;20024;-68
2022/10/19 07:03:33;;;;;;;2.30;2.10;;;;;;;5.75;94.87;100869.03;4918670;29;20032;-69
2022/10/19 07:06:01;;;;;;;2.43;2.23;;;;;;;5.74;94.65;100871.78;4918634;29;20317;-68
2022/10/19 07:08:30;;;;;;;4.57;2.30;;;;;;;5.78;95.00;100865.28;4918782;29;20547;-69
2022/10/19 07:11:00;;;;;;;2.63;1.90;;;;;;;5.87;94.83;100889.16;4918679;29;20036;-69
2022/10/19 07:13:27;;;;;;;3.20;2.20;;;;;;;5.89;93.83;100884.59;4918521;29;20114;-70
2022/10/19 07:15:58;;;;;;;5.53;2.07;;;;;;;5.92;94.09;100893.25;4918449;29;20260;-69
2022/10/19 07:18:24;;;;;;;3.60;1.87;;;;;;;5.83;93.13;100886.91;4918476;29;20056;-69
2022/10/19 07:20:53;;;;;;;1.87;1.77;;;;;;;5.78;93.59;100899.63;4918595;29;20417;-71
2022/10/19 07:23:19;;;;;;;2.43;2.00;;;;;;;5.70;93.83;100887.06;4917279;29;20044;-68
2022/10/19 07:25:44;;;;;;;3.47;1.90;;;;;;;5.80;94.43;100890.66;4918503;29;20024;-70
2022/10/19 07:28:10;;;;;;;2.47;1.80;;;;;;;5.80;93.16;100909.16;4918615;29;20031;-69
2022/10/19 07:30:37;;;;;;;2.20;1.60;;;;;;;5.79;93.61;100910.09;4918547;29;20024;-69
2022/10/19 07:33:03;;;;;;;4.13;2.23;;;;;;;5.75;93.26;100921.88;4918419;29;20066;-70
2022/10/19 07:35:29;;;;;;;3.47;1.60;;;;;;;5.81;93.04;100925.84;4917638;29;20082;-70
2022/10/19 07:37:55;;;;;;;4.10;1.73;;;;;;;5.78;92.92;100921.66;4901401;29;20619;-69
2022/10/19 07:40:20;;;;;;;2.20;1.77;;;;;;;5.73;92.75;100917.69;4918268;29;20036;-71
2022/10/19 07:42:45;;;;;;;2.97;1.70;;;;;;;5.77;92.20;100938.44;4918035;29;20040;-69
2022/10/19 07:45:11;;;;;;;4.93;2.03;;;;;;;5.78;92.51;100929.56;4918136;29;20028;-70
2022/10/19 07:47:37;;;;;;;2.17;1.93;;;;;;;5.72;92.08;100930.06;4917913;29;20120;-69
2022/10/19 07:50:02;;;;;;;2.30;1.97;;;;;;;5.72;91.54;100923.94;4918123;29;20051;-72
2022/10/19 07:52:29;;;;;;;2.90;2.30;;;;;;;5.65;92.04;100943.91;4918191;29;20106;-69
2022/10/19 07:54:55;;;;;;;2.33;1.67;;;;;;;5.63;92.53;100946.69;4917969;29;20379;-70
2022/10/19 07:57:21;;;;;;;4.03;2.90;;;;;;;5.67;93.10;100956.03;4917950;29;20036;-70
2022/10/19 07:59:46;;;;;;;2.00;1.70;;;;;;;5.66;91.97;100959.63;4917762;29;20047;-69
2022/10/19 08:02:16;;;;;;;3.90;2.10;;;;;;;5.63;92.62;100965.19;4917640;29;20024;-70
2022/10/19 08:04:41;;;;;;;2.37;1.80;;;;;;;5.60;92.48;100966.28;4918055;29;20028;-69
2022/10/19 08:07:08;;;;;;;1.70;1.60;;;;;;;5.44;92.81;100939.41;4917644;29;20287;-70
2022/10/19 08:09:36;;;;;;;1.80;1.70;;;;;;;5.57;92.78;100965.69;4917537;29;20036;-70
2022/10/19 08:12:03;;;;;;;2.67;1.80;;;;;;;5.66;93.05;100978.13;4917808;29;20042;-69
2022/10/19 08:14:29;;;;;;;5.13;3.20;;;;;;;5.67;93.19;100971.88;4917719;29;20039;-70
2022/10/19 08:16:54;;;;;;;1.73;1.60;;;;;;;5.63;92.75;100978.38;4926846;29;20044;-69
2022/10/19 08:19:21;;;;;;;2.03;1.80;;;;;;;5.58;92.58;100983.22;4926892;29;20135;-70
2022/10/19 08:21:47;;;;;;;2.87;2.03;;;;;;;5.32;92.73;100950.16;4920973;29;20032;-69
2022/10/19 08:24:14;;;;;;;4.03;2.00;;;;;;;5.59;92.73;100990.19;4918958;29;20268;-71
2022/10/19 08:26:40;;;;;;;2.13;1.83;;;;;;;5.59;92.55;100990.19;4917957;29;20256;-70
2022/10/19 08:29:11;;;;;;;2.23;2.03;;;;;;;5.67;92.61;101003.59;4917577;29;20043;-69
2022/10/19 08:31:37;;;;;;;3.17;1.50;;;;;;;5.70;91.58;101005.97;4918810;29;20095;-70
2022/10/19 08:34:04;;;;;;;1.70;1.60;;;;;;;5.75;91.42;101006.44;4918488;29;20268;-70
2022/10/19 08:36:31;;;;;;;3.03;1.60;;;;;;;5.86;91.37;101006.41;4917358;29;20168;-71
2022/10/19 08:38:57;;;;;;;1.93;1.80;;;;;;;5.78;90.05;101011.50;4917617;29;20068;-70
2022/10/19 08:41:53;;;;;;;2.47;2.13;;;;;;;5.77;90.52;101020.38;4917571;29;20047;-69
2022/10/19 08:44:56;;;;;;;2.57;1.70;;;;;;;5.75;90.82;101013.53;4917539;29;20470;-69
2022/10/19 08:47:59;;;;;;;4.23;1.53;;;;;;;5.78;91.45;101019.44;4917086;29;20032;-69
2022/10/19 08:50:34;;;;;;;5.83;3.30;;;;;;;5.87;90.79;101016.03;4916950;29;20040;-70
2022/10/19 08:53:06;;;;;;;1.73;1.30;;;;;;;5.92;90.15;101022.78;4900325;29;20135;-70
2022/10/19 08:55:52;;;;;;;2.30;1.80;;;;;;;5.90;90.60;101018.44;4917551;29;20036;-70
2022/10/19 08:58:26;;;;;;;1.77;1.33;;;;;;;5.83;90.12;101035.75;4917856;29;20087;-70
2022/10/19 09:01:12;;;;;;;2.07;1.57;;;;;;;5.70;90.56;101024.47;4920325;29;20024;-69
2022/10/19 09:04:00;;;;;;;12.70;2.20;;;;;;;5.67;91.56;101032.66;4920716;29;20260;-71
2022/10/19 09:06:30;;;;;;;3.00;1.50;;;;;;;5.67;90.73;101037.94;4940216;29;20040;-68
2022/10/19 09:09:00;;;;;;;4.07;1.57;;;;;;;5.66;91.58;101038.91;4940044;29;20048;-71
2022/10/19 09:11:36;;;;;;;3.53;3.07;;;;;;;5.65;91.36;101034.59;4937857;29;20063;-69
2022/10/19 09:14:26;;;;;;;4.27;1.60;;;;;;;5.67;90.54;101037.94;4921895;29;20464;-69
2022/10/19 09:16:57;;;;;;;3.43;1.73;;;;;;;5.65;90.62;101041.69;4916360;29;20491;-71
2022/10/19 09:19:28;;;;;;;4.57;2.93;;;;;;;5.61;90.93;101051.66;4916377;29;20032;-71
2022/10/19 09:21:59;;;;;;;1.47;1.37;;;;;;;5.59;90.45;101064.16;4916903;29;20032;-69
2022/10/19 09:24:51;;;;;;;3.77;1.80;;;;;;;5.52;91.48;101052.41;4921045;29;20061;-71
2022/10/19 09:27:23;;;;;;;1.73;1.40;;;;;;;5.59;91.10;101057.06;4920289;29;20061;-70
2022/10/19 09:29:49;;;;;;;2.77;1.50;;;;;;;5.80;90.36;101061.59;4916309;29;20041;-69
2022/10/19 09:32:23;;;;;;;7.87;1.87;;;;;;;6.03;88.32;101065.00;4916555;29;20476;-70
2022/10/19 09:34:51;;;;;;;1.97;1.77;;;;;;;6.23;87.52;101064.22;4919355;29;20032;-69
2022/10/19 09:37:19;;;;;;;8.15;3.25;;;;;;;6.44;85.79;101073.03;4920270;29;20032;-68
2022/10/19 09:39:45;;;;;;;4.03;1.47;;;;;;;6.35;84.07;101065.81;4918015;29;20044;-70
2022/10/19 09:42:28;;;;;;;2.63;1.93;;;;;;;6.19;85.42;101070.72;4916028;29;20384;-70
2022/10/19 09:44:54;;;;;;;1.70;1.40;;;;;;;6.15;85.40;101090.47;4916347;29;20038;-69
2022/10/19 09:47:36;;;;;;;3.63;1.40;;;;;;;6.17;85.35;101093.81;4898875;29;20123;-70
2022/10/19 09:50:25;;;;;;;2.40;1.33;;;;;;;6.16;84.70;101108.00;4916121;29;20024;-69
2022/10/19 09:52:56;;;;;;;1.77;1.67;;;;;;;6.01;85.03;101099.50;4906413;29;20480;-69
2022/10/19 09:55:41;;;;;;;4.77;1.70;;;;;;;5.98;85.12;101104.22;4899147;29;20028;-69
2022/10/19 09:58:18;;;;;;;2.27;1.80;;;;;;;5.93;84.78;101107.22;4915374;29;20089;-70
2022/10/19 10:00:46;;;;;;;3.03;1.37;;;;;;;5.94;84.96;101108.06;4915977;29;20080;-70
2022/10/19 10:03:21;;;;;;;2.47;1.50;;;;;;;5.94;84.42;101127.41;4915951;29;20029;-69
2022/10/19 10:05:47;;;;;;;2.87;1.50;;;;;;;5.94;84.15;101123.94;4915745;29;20092;-69
2022/10/19 10:08:21;;;;;;;1.67;1.20;;;;;;;5.87;82.90;101132.34;4915628;29;20117;-68
2022/10/19 10:11:23;;;;;;;3.87;1.40;;;;;;;5.95;83.51;101138.81;4915698;29;20043;-72
2022/10/19 10:13:52;;;;;;;1.43;1.33;;;;;;;6.04;82.90;101138.06;4902834;29;20044;-70
2022/10/19 10:16:20;;;;;;;2.53;1.10;;;;;;;6.13;81.48;101142.63;4915819;29;20457;-69
2022/10/19 10:18:55;;;;;;;;;;;;;;;6.12;82.22;101140.97;4916168;29;20042;-69
2022/10/19 10:21:23;;;;;;;2.53;1.27;;;;;;;6.04;81.04;101138.06;4915571;29;19915;-71
2022/10/19 10:24:04;;;;;;;1.63;1.27;;;;;;;6.03;81.30;101146.97;4915937;29;20444;-70
2022/10/19 10:26:30;;;;;;;1.57;1.47;;;;;;;5.85;80.80;101150.13;4915995;29;20032;-70
2022/10/19 10:28:56;;;;;;;4.00;1.40;;;;;;;5.73;81.14;101140.50;4898740;29;20122;-70
2022/10/19 10:31:24;;;;;;;1.90;1.60;;;;;;;5.72;81.14;101161.78;4915694;29;20106;-72
2022/10/19 10:34:00;;;;;;;2.38;1.65;;;;;;;5.67;81.47;101162.13;4915384;29;20469;-69
2022/10/19 10:36:28;;;;;;;2.77;1.37;;;;;;;5.75;79.42;101175.56;4915687;29;20182;-69
2022/10/19 10:39:05;;;;;;;2.30;1.57;;;;;;;5.72;78.98;101185.56;4915654;29;20067;-68
2022/10/19 10:41:39;;;;;;;2.50;1.23;;;;;;;5.64;79.46;101166.84;4898741;29;20035;-69
2022/10/19 10:44:23;;;;;;;1.17;1.07;;;;;;;5.64;79.01;101169.47;4915447;29;20300;-70
2022/10/19 10:46:55;;;;;;;2.83;1.00;;;;;;;5.67;79.27;101183.28;4915337;29;20032;-69
2022/10/19 10:49:32;;;;;;;2.20;1.47;;;;;;;5.49;79.16;101169.72;4915515;29;20044;-70
2022/10/19 10:52:09;;;;;;;1.93;1.20;;;;;;;5.52;80.18;101173.94;4915365;29;20028;-70
2022/10/19 10:54:37;;;;;;;1.38;1.17;;;;;;;5.52;78.87;101189.78;4915363;29;20126;-70
2022/10/19 10:57:18;;;;;;;3.93;1.47;;;;;;;5.61;76.99;101194.34;4915222;29;20031;-69
2022/10/19 10:59:53;;;;;;;1.30;1.07;;;;;;;5.73;77.37;101196.00;4915432;29;20028;-70
2022/10/19 11:02:31;;;;;;;2.10;1.53;;;;;;;5.79;77.12;101207.91;4915346;29;20035;-69
2022/10/19 11:05:04;;;;;;;1.17;1.07;;;;;;;5.73;76.91;101206.56;4915436;29;20069;-69
2022/10/19 11:07:33;;;;;;;2.00;1.40;;;;;;;5.86;75.94;101204.66;4914995;29;20492;-70
2022/10/19 11:10:08;;;;;;;1.75;1.40;;;;;;;5.87;77.23;101205.50;4917680;29;20040;-70
2022/10/19 11:12:48;;;;;;;1.67;1.57;;;;;;;5.78;76.71;101201.78;4918963;29;20059;-69
2022/10/19 11:15:38;;;;;;;3.20;1.10;;;;;;;5.71;76.56;101211.13;4918741;29;20032;-70
2022/10/19 11:18:09;;;;;;;5.20;1.80;;;;;;;5.47;77.18;101210.41;4918470;29;20024;-69
2022/10/19 11:20:41;;;;;;;3.27;1.30;;;;;;;5.33;77.30;101214.13;4918775;29;20456;-70
2022/10/19 11:23:15;;;;;;;1.40;1.10;;;;;;;5.36;78.11;101221.81;4918490;29;20036;-69
2022/10/19 11:26:02;;;;;;;1.20;1.10;;;;;;;5.48;78.68;101225.28;4918252;29;20032;-69
2022/10/19 11:28:43;;;;;;;4.93;1.30;;;;;;;5.92;78.53;101232.44;4917784;29;20036;-70
2022/10/19 11:31:17;;;;;;;1.50;1.40;;;;;;;6.27;77.59;101228.78;4918144;29;20353;-70
2022/10/19 11:34:36;;;;;;;1.40;1.30;;;;;;;6.27;77.40;101224.34;4918422;29;20404;-71
2022/10/19 11:37:30;;;;;;;2.63;1.50;;;;;;;6.07;77.79;101233.00;4840809;29;20033;-70
2022/10/19 11:40:12;;;;;;;4.23;1.50;;;;;;;5.96;78.52;101238.31;4918193;29;20085;-69
2022/10/19 11:42:55;;;;;;;4.10;1.63;;;;;;;5.81;78.60;101232.44;4916749;29;20031;-71
2022/10/19 11:45:38;;;;;;;4.40;1.40;;;;;;;5.89;78.28;101248.50;4916910;29;20484;-72
2022/10/19 11:48:35;;;;;;;2.43;1.47;;;;;;;5.91;78.02;101259.84;4931080;29;20032;-70